createdAt,value
2022-08-23T00:00:27.970Z,21.30
2022-08-23T00:02:32.721Z,21.30
2022-08-23T00:04:40.888Z,21.30
2022-08-23T00:07:03.733Z,21.30
2022-08-23T00:09:06.635Z,21.30
2022-08-23T00:11:28.012Z,21.30
2022-08-23T00:13:47.254Z,21.40
2022-08-23T00:15:51.434Z,21.30
2022-08-23T00:17:54.149Z,21.30
2022-08-23T00:19:57.150Z,21.20
2022-08-23T00:21:59.911Z,21.20
2022-08-23T00:24:02.651Z,21.20
2022-08-23T00:26:05.476Z,21.20
2022-08-23T00:28:12.461Z,21.20
2022-08-23T00:30:19.117Z,21.20
2022-08-23T00:32:23.384Z,21.10
2022-08-23T00:34:26.321Z,21.10
2022-08-23T00:36:29.028Z,21.10
2022-08-23T00:38:34.848Z,21.10
2022-08-23T00:40:37.904Z,21.10
2022-08-23T00:43:01.043Z,21.10
2022-08-23T00:45:23.133Z,21.10
2022-08-23T00:47:41.707Z,21.00
2022-08-23T00:49:46.984Z,21.00
2022-08-23T00:51:53.503Z,21.00
2022-08-23T00:53:59.137Z,20.90
2022-08-23T00:56:04.279Z,20.90
2022-08-23T00:58:06.987Z,20.90
2022-08-23T01:00:10.900Z,20.90
2022-08-23T01:02:14.305Z,20.90
2022-08-23T01:04:18.486Z,20.90
2022-08-23T01:06:23.639Z,20.90
2022-08-23T01:08:27.301Z,20.90
2022-08-23T01:10:34.152Z,20.90
2022-08-23T01:12:38.719Z,20.90
2022-08-23T01:14:42.611Z,20.90
2022-08-23T01:16:46.961Z,20.80
2022-08-23T01:18:49.663Z,20.80
2022-08-23T01:20:56.778Z,20.80
2022-08-23T01:23:00.880Z,20.80
2022-08-23T01:25:08.723Z,20.80
2022-08-23T01:27:12.252Z,20.80
2022-08-23T01:29:16.837Z,20.70
2022-08-23T01:31:19.668Z,20.70
2022-08-23T01:33:22.381Z,20.80
2022-08-23T01:37:34.538Z,20.70
2022-08-23T01:39:37.583Z,20.70
2022-08-23T01:41:42.420Z,20.70
2022-08-23T01:43:45.136Z,20.70
2022-08-23T01:45:47.948Z,20.60
2022-08-23T01:47:50.717Z,20.60
2022-08-23T01:49:53.497Z,20.60
2022-08-23T01:51:56.225Z,20.60
2022-08-23T01:53:59.001Z,20.60
2022-08-23T01:56:02.507Z,20.60
2022-08-23T01:58:06.848Z,20.60
2022-08-23T02:00:10.356Z,20.60
2022-08-23T02:02:16.935Z,20.60
2022-08-23T02:04:19.669Z,20.60
2022-08-23T02:06:22.525Z,20.50
2022-08-23T02:08:43.153Z,20.50
2022-08-23T02:10:45.897Z,20.50
2022-08-23T02:12:48.697Z,20.50
2022-08-23T02:14:52.860Z,20.40
2022-08-23T02:17:04.213Z,20.50
2022-08-23T02:19:09.269Z,20.50
2022-08-23T02:21:12.004Z,20.50
2022-08-23T02:23:14.766Z,20.50
2022-08-23T02:25:17.531Z,20.50
2022-08-23T02:27:20.243Z,20.50
2022-08-23T02:29:23.995Z,20.50
2022-08-23T02:31:28.025Z,20.40
2022-08-23T02:33:30.757Z,20.40
2022-08-23T02:37:53.825Z,20.40
2022-08-23T02:39:56.683Z,20.40
2022-08-23T02:42:01.013Z,20.40
2022-08-23T02:44:04.239Z,20.40
2022-08-23T02:46:10.768Z,20.40
2022-08-23T02:48:14.917Z,20.40
2022-08-23T02:50:17.732Z,20.30
2022-08-23T02:52:20.846Z,20.30
2022-08-23T02:54:23.651Z,20.30
2022-08-23T02:56:26.435Z,20.30
2022-08-23T02:58:29.281Z,20.30
2022-08-23T03:00:32.101Z,20.30
2022-08-23T03:02:35.021Z,20.20
2022-08-23T03:04:39.271Z,20.20
2022-08-23T03:06:42.210Z,20.20
2022-08-23T03:08:45.391Z,20.20
2022-08-23T03:10:49.523Z,20.10
2022-08-23T03:12:52.400Z,20.10
2022-08-23T03:14:55.903Z,20.10
2022-08-23T03:16:58.733Z,20.00
2022-08-23T03:19:02.274Z,20.10
2022-08-23T03:21:07.266Z,20.00
2022-08-23T03:23:10.181Z,20.00
2022-08-23T03:25:12.995Z,20.00
2022-08-23T03:27:18.423Z,20.00
2022-08-23T03:29:21.263Z,20.00
2022-08-23T03:31:24.007Z,20.00
2022-08-23T03:33:26.956Z,20.00
2022-08-23T03:35:29.726Z,20.00
2022-08-23T03:37:34.317Z,20.00
2022-08-23T03:39:37.274Z,20.00
2022-08-23T03:41:40.061Z,20.00
2022-08-23T03:43:42.772Z,20.00
2022-08-23T03:45:45.504Z,19.90
2022-08-23T03:47:48.307Z,20.00
2022-08-23T03:49:51.817Z,20.00
2022-08-23T03:51:54.573Z,19.90
2022-08-23T03:53:58.667Z,19.90
2022-08-23T03:56:01.386Z,20.00
2022-08-23T03:58:04.091Z,19.90
2022-08-23T04:00:07.957Z,19.90
2022-08-23T04:02:11.005Z,19.90
2022-08-23T04:04:13.939Z,19.90
2022-08-23T04:06:16.832Z,19.90
2022-08-23T04:08:23.262Z,19.90
2022-08-23T04:10:39.173Z,19.90
2022-08-23T04:12:42.077Z,19.90
2022-08-23T04:14:45.498Z,19.90
2022-08-23T04:16:48.486Z,19.80
2022-08-23T04:18:51.237Z,19.80
2022-08-23T04:20:53.959Z,19.80
2022-08-23T04:22:57.025Z,19.70
2022-08-23T04:25:00.229Z,19.70
2022-08-23T04:27:04.628Z,19.70
2022-08-23T04:29:07.345Z,19.70
2022-08-23T04:31:11.987Z,19.60
2022-08-23T04:33:17.914Z,19.70
2022-08-23T04:35:21.031Z,19.70
2022-08-23T04:37:23.735Z,19.70
2022-08-23T04:39:26.582Z,19.70
2022-08-23T04:41:46.762Z,19.70
2022-08-23T04:43:50.825Z,19.70
2022-08-23T04:45:53.564Z,19.70
2022-08-23T04:47:56.546Z,19.70
2022-08-23T04:49:59.273Z,19.70
2022-08-23T04:52:01.993Z,19.70
2022-08-23T04:54:04.798Z,19.80
2022-08-23T04:56:08.374Z,19.80
2022-08-23T04:58:11.184Z,19.70
2022-08-23T05:00:16.770Z,19.80
2022-08-23T05:02:20.510Z,19.80
2022-08-23T05:04:23.211Z,19.90
2022-08-23T05:06:25.963Z,19.90
2022-08-23T05:08:28.836Z,19.90
2022-08-23T05:10:31.606Z,19.90
2022-08-23T05:12:34.321Z,19.90
2022-08-23T05:14:37.060Z,19.90
2022-08-23T05:16:41.125Z,19.90
2022-08-23T05:18:43.858Z,19.90
2022-08-23T05:20:46.764Z,19.80
2022-08-23T05:22:50.443Z,19.90
2022-08-23T05:24:53.179Z,19.90
2022-08-23T05:26:55.879Z,19.90
2022-08-23T05:28:58.604Z,19.90
2022-08-23T05:31:02.292Z,19.90
2022-08-23T05:33:06.833Z,20.00
2022-08-23T05:35:10.659Z,19.90
2022-08-23T05:37:13.484Z,20.00
2022-08-23T05:39:17.252Z,20.00
2022-08-23T05:41:33.354Z,20.00
2022-08-23T05:43:41.166Z,19.90
2022-08-23T05:45:43.899Z,19.90
2022-08-23T05:47:47.244Z,19.90
2022-08-23T05:49:53.932Z,19.90
2022-08-23T05:51:56.847Z,20.00
2022-08-23T05:54:00.785Z,20.00
2022-08-23T05:56:10.951Z,20.00
2022-08-23T05:58:13.676Z,20.00
2022-08-23T06:00:16.509Z,20.20
2022-08-23T06:02:19.280Z,20.20
2022-08-23T06:04:21.983Z,20.20
2022-08-23T06:06:36.376Z,20.10
2022-08-23T06:08:40.969Z,20.20
2022-08-23T06:10:43.695Z,20.10
2022-08-23T06:12:47.133Z,20.20
2022-08-23T06:14:49.839Z,20.20
2022-08-23T06:16:56.076Z,20.30
2022-08-23T06:18:59.432Z,20.40
2022-08-23T06:21:03.141Z,20.40
2022-08-23T06:23:08.797Z,20.40
2022-08-23T06:25:14.753Z,20.40
2022-08-23T06:27:17.484Z,20.50
2022-08-23T06:29:21.057Z,20.60
2022-08-23T06:31:38.394Z,20.60
2022-08-23T06:33:42.445Z,20.70
2022-08-23T06:35:45.330Z,20.70
2022-08-23T06:37:48.073Z,20.80
2022-08-23T06:39:52.758Z,20.80
2022-08-23T06:41:58.349Z,20.90
2022-08-23T06:44:01.044Z,20.90
2022-08-23T06:46:11.788Z,21.00
2022-08-23T06:48:18.640Z,21.00
2022-08-23T06:50:21.664Z,21.00
2022-08-23T06:52:25.496Z,21.10
2022-08-23T06:54:29.452Z,21.10
2022-08-23T06:56:33.567Z,21.10
2022-08-23T06:58:36.729Z,21.10
2022-08-23T07:00:39.490Z,21.10
2022-08-23T07:02:42.471Z,21.40
2022-08-23T07:04:45.261Z,21.70
2022-08-23T07:06:48.005Z,21.90
2022-08-23T07:08:51.020Z,22.10
2022-08-23T07:10:57.017Z,22.20
2022-08-23T07:13:01.173Z,22.40
2022-08-23T07:15:03.999Z,22.60
2022-08-23T07:17:06.810Z,22.50
2022-08-23T07:19:10.004Z,22.70
2022-08-23T07:21:13.165Z,22.90
2022-08-23T07:23:17.259Z,23.30
2022-08-23T07:25:20.119Z,23.50
2022-08-23T07:27:22.825Z,23.70
2022-08-23T07:29:26.867Z,23.80
2022-08-23T07:31:31.018Z,23.70
2022-08-23T07:33:33.777Z,23.90
2022-08-23T07:35:48.079Z,23.90
2022-08-23T07:37:50.775Z,23.70
2022-08-23T07:39:58.488Z,23.80
2022-08-23T07:42:01.645Z,23.50
2022-08-23T07:44:27.237Z,23.30
2022-08-23T07:46:30.430Z,23.50
2022-08-23T07:48:53.003Z,24.00
2022-08-23T07:50:57.828Z,24.20
2022-08-23T07:53:02.892Z,24.40
2022-08-23T07:55:06.213Z,24.60
2022-08-23T07:57:09.793Z,24.20
2022-08-23T07:59:12.530Z,24.50
2022-08-23T08:01:18.181Z,25.10
2022-08-23T08:03:21.319Z,25.40
2022-08-23T08:05:24.052Z,25.80
2022-08-23T08:07:27.455Z,25.70
2022-08-23T08:09:33.583Z,25.80
2022-08-23T08:11:36.452Z,25.70
2022-08-23T08:13:39.285Z,25.70
2022-08-23T08:15:43.107Z,25.80
2022-08-23T08:17:49.393Z,25.80
2022-08-23T08:19:52.095Z,26.00
2022-08-23T08:21:54.841Z,25.70
2022-08-23T08:23:58.648Z,25.70
2022-08-23T08:26:02.404Z,25.70
2022-08-23T08:28:05.116Z,25.60
2022-08-23T08:30:09.172Z,25.90
2022-08-23T08:32:13.728Z,25.80
2022-08-23T08:34:20.139Z,26.10
2022-08-23T08:36:30.746Z,26.50
2022-08-23T08:38:38.778Z,26.70
2022-08-23T08:40:58.625Z,26.50
2022-08-23T08:43:13.695Z,26.80
2022-08-23T08:45:17.288Z,26.80
2022-08-23T08:47:22.182Z,26.90
2022-08-23T08:49:33.734Z,26.80
2022-08-23T08:51:42.164Z,27.20
2022-08-23T08:53:45.870Z,27.70
2022-08-23T08:55:50.520Z,27.80
2022-08-23T08:57:55.895Z,27.80
2022-08-23T09:00:00.303Z,27.80
2022-08-23T09:02:03.443Z,27.80
2022-08-23T09:04:06.813Z,28.00
2022-08-23T09:06:15.776Z,27.70
2022-08-23T09:08:26.393Z,28.00
2022-08-23T09:10:53.817Z,28.50
2022-08-23T09:13:19.801Z,28.90
2022-08-23T09:15:29.228Z,29.00
2022-08-23T09:17:36.137Z,28.90
2022-08-23T09:19:39.082Z,29.10
2022-08-23T09:21:45.483Z,28.90
2022-08-23T09:23:57.120Z,29.10
2022-08-23T09:26:05.587Z,28.90
2022-08-23T09:28:08.329Z,29.60
2022-08-23T09:30:12.034Z,29.80
2022-08-23T09:32:27.556Z,29.80
2022-08-23T09:34:41.929Z,30.00
2022-08-23T09:36:46.091Z,29.30
2022-08-23T09:38:53.518Z,29.80
2022-08-23T09:40:56.245Z,29.40
2022-08-23T09:43:06.032Z,29.40
2022-08-23T09:45:09.880Z,30.00
2022-08-23T09:47:13.367Z,30.40
2022-08-23T09:49:24.006Z,30.40
2022-08-23T09:51:28.381Z,30.50
2022-08-23T09:53:32.455Z,30.20
2022-08-23T09:55:36.212Z,30.10
2022-08-23T09:57:39.503Z,30.70
2022-08-23T09:59:43.685Z,30.60
2022-08-23T10:01:47.899Z,30.40
2022-08-23T10:04:09.525Z,30.30
2022-08-23T10:06:15.448Z,31.40
2022-08-23T10:08:23.363Z,31.40
2022-08-23T10:10:30.284Z,31.40
2022-08-23T10:12:32.988Z,31.10
2022-08-23T10:14:35.701Z,31.10
2022-08-23T10:16:46.373Z,30.90
2022-08-23T10:18:54.853Z,30.60
2022-08-23T10:21:01.818Z,31.30
2022-08-23T10:23:13.285Z,31.70
2022-08-23T10:25:19.870Z,31.50
2022-08-23T10:27:49.399Z,31.30
2022-08-23T10:29:52.548Z,32.00
2022-08-23T10:31:59.480Z,32.40
2022-08-23T10:34:10.893Z,32.60
2022-08-23T10:36:15.821Z,32.60
2022-08-23T10:38:38.671Z,31.60
2022-08-23T10:40:43.273Z,31.80
2022-08-23T10:42:53.259Z,32.40
2022-08-23T10:44:58.936Z,32.70
2022-08-23T10:47:18.232Z,32.90
2022-08-23T10:49:20.962Z,32.40
2022-08-23T10:51:31.676Z,33.00
2022-08-23T10:53:37.344Z,32.70
2022-08-23T10:56:03.920Z,32.10
2022-08-23T10:58:09.028Z,32.60
2022-08-23T11:00:16.208Z,32.20
2022-08-23T11:02:22.072Z,32.20
2022-08-23T11:04:27.521Z,31.40
2022-08-23T11:06:44.549Z,32.50
2022-08-23T11:08:48.079Z,32.40
2022-08-23T11:10:56.375Z,32.70
2022-08-23T11:13:01.186Z,32.30
2022-08-23T11:15:12.364Z,32.80
2022-08-23T11:17:25.522Z,32.70
2022-08-23T11:19:58.881Z,33.00
2022-08-23T11:22:14.191Z,33.70
2022-08-23T11:24:34.460Z,33.40
2022-08-23T11:27:07.973Z,32.90
2022-08-23T11:29:29.369Z,32.40
2022-08-23T11:31:34.745Z,32.40
2022-08-23T11:33:37.819Z,32.70
2022-08-23T11:35:43.359Z,33.00
2022-08-23T11:37:55.027Z,33.60
2022-08-23T11:40:08.532Z,33.70
2022-08-23T11:42:11.268Z,34.20
2022-08-23T11:44:22.981Z,34.50
2022-08-23T11:46:35.921Z,34.50
2022-08-23T11:48:43.658Z,34.60
2022-08-23T11:51:17.137Z,34.40
2022-08-23T11:53:25.963Z,34.70
2022-08-23T11:55:37.427Z,35.10
2022-08-23T11:57:50.164Z,34.40
2022-08-23T12:00:17.507Z,34.00
2022-08-23T12:02:41.684Z,33.80
2022-08-23T12:04:47.920Z,33.00
2022-08-23T12:06:52.957Z,34.00
2022-08-23T12:08:56.986Z,33.80
2022-08-23T12:11:03.348Z,34.00
2022-08-23T12:13:28.004Z,33.30
2022-08-23T12:15:58.142Z,34.00
2022-08-23T12:18:15.115Z,34.60
2022-08-23T12:20:24.324Z,34.90
2022-08-23T12:22:29.894Z,34.90
2022-08-23T12:24:33.847Z,34.20
2022-08-23T12:26:45.389Z,34.40
2022-08-23T12:28:49.563Z,34.80
2022-08-23T12:30:56.192Z,34.70
2022-08-23T12:33:02.927Z,34.50
2022-08-23T12:35:18.954Z,34.80
2022-08-23T12:37:27.152Z,35.30
2022-08-23T12:39:32.486Z,35.20
2022-08-23T12:41:44.911Z,35.00
2022-08-23T12:44:00.040Z,33.80
2022-08-23T12:46:03.765Z,34.40
2022-08-23T12:48:08.264Z,34.90
2022-08-23T12:50:21.753Z,34.80
2022-08-23T12:52:34.669Z,34.80
2022-08-23T12:54:39.283Z,33.90
2022-08-23T12:56:42.269Z,34.10
2022-08-23T12:58:47.281Z,33.80
2022-08-23T13:00:52.971Z,34.30
2022-08-23T13:02:58.778Z,34.20
2022-08-23T13:05:08.985Z,34.20
2022-08-23T13:07:17.683Z,34.70
2022-08-23T13:09:22.721Z,34.30
2022-08-23T13:11:27.145Z,33.70
2022-08-23T13:13:29.869Z,34.60
2022-08-23T13:15:47.005Z,34.40
2022-08-23T13:17:49.769Z,34.70
2022-08-23T13:19:53.320Z,34.70
2022-08-23T13:22:12.738Z,34.50
2022-08-23T13:24:37.904Z,34.00
2022-08-23T13:26:43.159Z,34.40
2022-08-23T13:29:00.737Z,34.00
2022-08-23T13:31:08.331Z,33.90
2022-08-23T13:33:21.775Z,34.10
2022-08-23T13:35:35.167Z,33.60
2022-08-23T13:37:38.295Z,33.50
2022-08-23T13:39:48.500Z,34.00
2022-08-23T13:41:51.211Z,33.50
2022-08-23T13:43:54.881Z,33.70
2022-08-23T13:45:58.978Z,33.90
2022-08-23T13:48:11.597Z,33.60
2022-08-23T13:50:16.587Z,34.00
2022-08-23T13:52:50.612Z,34.00
2022-08-23T13:54:43.702Z,33.70
2022-08-23T13:56:49.537Z,34.10
2022-08-23T13:58:56.900Z,33.80
2022-08-23T14:01:00.702Z,33.00
2022-08-23T14:03:05.190Z,33.60
2022-08-23T14:05:09.642Z,33.40
2022-08-23T14:07:12.803Z,33.60
2022-08-23T14:09:15.653Z,33.40
2022-08-23T14:11:19.910Z,33.50
2022-08-23T14:13:22.991Z,33.50
2022-08-23T14:17:49.770Z,34.00
2022-08-23T14:20:32.545Z,33.60
2022-08-23T14:22:16.225Z,33.30
2022-08-23T14:24:18.981Z,33.50
2022-08-23T14:26:23.377Z,33.40
2022-08-23T14:28:29.467Z,33.20
2022-08-23T14:30:33.335Z,33.30
2022-08-23T14:32:38.571Z,33.30
2022-08-23T14:34:41.271Z,33.00
2022-08-23T14:37:21.670Z,32.70
2022-08-23T14:39:06.773Z,32.30
2022-08-23T14:41:11.266Z,32.30
2022-08-23T14:43:15.339Z,32.50
2022-08-23T14:45:18.624Z,32.50
2022-08-23T14:47:21.324Z,32.50
2022-08-23T14:49:24.046Z,32.20
2022-08-23T14:51:28.345Z,32.30
2022-08-23T14:53:32.665Z,32.20
2022-08-23T14:55:35.407Z,32.30
2022-08-23T14:57:38.164Z,31.90
2022-08-23T14:59:42.203Z,31.40
2022-08-23T15:01:45.050Z,31.70
2022-08-23T15:03:47.894Z,31.60
2022-08-23T15:05:50.688Z,31.60
2022-08-23T15:07:53.424Z,31.50
2022-08-23T15:09:56.145Z,31.60
2022-08-23T15:14:24.034Z,31.80
2022-08-23T15:16:28.855Z,31.70
2022-08-23T15:18:31.904Z,31.50
2022-08-23T15:20:36.029Z,31.30
2022-08-23T15:22:44.354Z,31.40
2022-08-23T15:24:47.880Z,31.20
2022-08-23T15:26:50.601Z,31.10
2022-08-23T15:28:53.401Z,31.00
2022-08-23T15:30:56.184Z,31.00
2022-08-23T15:33:00.559Z,31.00
2022-08-23T15:35:03.789Z,31.00
2022-08-23T15:37:06.496Z,31.00
2022-08-23T15:39:09.243Z,30.80
2022-08-23T15:41:12.274Z,30.70
2022-08-23T15:43:15.930Z,30.70
2022-08-23T15:45:19.328Z,30.60
2022-08-23T15:47:24.108Z,30.60
2022-08-23T15:49:29.984Z,30.60
2022-08-23T15:51:35.632Z,30.70
2022-08-23T15:53:40.057Z,30.60
2022-08-23T15:55:43.050Z,30.30
2022-08-23T15:57:46.616Z,30.40
2022-08-23T15:59:49.358Z,30.40
2022-08-23T16:01:52.063Z,30.40
2022-08-23T16:03:54.780Z,30.30
2022-08-23T16:05:58.851Z,30.30
2022-08-23T16:08:01.565Z,30.10
2022-08-23T16:10:06.481Z,30.20
2022-08-23T16:12:09.906Z,30.00
2022-08-23T16:14:12.712Z,29.80
2022-08-23T16:16:18.581Z,29.60
2022-08-23T16:18:21.320Z,29.50
2022-08-23T16:20:24.201Z,29.50
2022-08-23T16:22:28.261Z,29.50
2022-08-23T16:24:30.989Z,29.50
2022-08-23T16:26:35.601Z,29.40
2022-08-23T16:28:38.432Z,29.40
2022-08-23T16:30:41.219Z,29.20
2022-08-23T16:32:43.988Z,29.30
2022-08-23T16:34:46.701Z,29.20
2022-08-23T16:36:51.876Z,29.20
2022-08-23T16:38:59.007Z,29.10
2022-08-23T16:41:01.868Z,28.90
2022-08-23T16:43:04.676Z,28.80
2022-08-23T16:45:08.605Z,28.80
2022-08-23T16:47:12.647Z,28.80
2022-08-23T16:49:16.425Z,28.70
2022-08-23T16:51:19.316Z,28.70
2022-08-23T16:53:22.051Z,28.60
2022-08-23T16:55:26.111Z,28.50
2022-08-23T16:57:29.101Z,28.50
2022-08-23T16:59:31.846Z,28.40
2022-08-23T17:01:44.096Z,28.40
2022-08-23T17:03:46.807Z,28.40
2022-08-23T17:05:49.579Z,28.40
2022-08-23T17:07:54.104Z,28.30
2022-08-23T17:09:56.835Z,28.30
2022-08-23T17:12:00.967Z,28.20
2022-08-23T17:14:05.325Z,28.20
2022-08-23T17:16:09.076Z,28.10
2022-08-23T17:18:11.886Z,28.00
2022-08-23T17:20:21.096Z,28.00
2022-08-23T17:22:23.803Z,28.00
2022-08-23T17:24:26.548Z,27.90
2022-08-23T17:26:29.430Z,27.90
2022-08-23T17:28:33.681Z,27.80
2022-08-23T17:30:36.415Z,27.80
2022-08-23T17:32:39.524Z,27.70
2022-08-23T17:34:42.256Z,27.70
2022-08-23T17:36:47.773Z,27.70
2022-08-23T17:38:50.798Z,27.60
2022-08-23T17:40:53.623Z,27.60
2022-08-23T17:42:56.420Z,27.50
2022-08-23T17:45:00.649Z,27.50
2022-08-23T17:47:07.159Z,27.40
2022-08-23T17:49:10.954Z,27.40
2022-08-23T17:51:13.656Z,27.30
2022-08-23T17:53:17.586Z,27.30
2022-08-23T17:55:20.632Z,27.20
2022-08-23T17:57:23.451Z,27.10
2022-08-23T17:59:26.167Z,27.10
2022-08-23T18:01:30.421Z,27.00
2022-08-23T18:03:33.209Z,27.00
2022-08-23T18:05:36.023Z,26.90
2022-08-23T18:07:39.073Z,26.90
2022-08-23T18:09:48.644Z,26.90
2022-08-23T18:11:51.608Z,26.80
2022-08-23T18:13:54.318Z,26.70
2022-08-23T18:15:57.044Z,26.60
2022-08-23T18:18:01.292Z,26.60
2022-08-23T18:20:04.918Z,26.50
2022-08-23T18:22:07.632Z,26.40
2022-08-23T18:24:10.352Z,26.30
2022-08-23T18:26:33.603Z,26.30
2022-08-23T18:28:35.388Z,26.20
2022-08-23T18:30:39.260Z,26.20
2022-08-23T18:32:42.105Z,26.10
2022-08-23T18:34:46.287Z,26.10
2022-08-23T18:36:49.003Z,26.00
2022-08-23T18:38:51.752Z,26.00
2022-08-23T18:40:54.501Z,25.90
2022-08-23T18:42:57.433Z,25.90
2022-08-23T18:45:00.169Z,25.80
2022-08-23T18:47:03.141Z,25.70
2022-08-23T18:49:06.133Z,25.70
2022-08-23T18:51:16.286Z,25.60
2022-08-23T18:53:20.939Z,25.60
2022-08-23T18:55:23.841Z,25.50
2022-08-23T18:57:26.543Z,25.50
2022-08-23T18:59:29.263Z,25.40
2022-08-23T19:01:33.307Z,25.40
2022-08-23T19:03:36.127Z,25.30
2022-08-23T19:05:42.126Z,25.30
2022-08-23T19:07:46.579Z,25.30
2022-08-23T19:09:50.155Z,25.20
2022-08-23T19:11:52.856Z,25.20
2022-08-23T19:13:55.600Z,25.20
2022-08-23T19:15:58.365Z,25.20
2022-08-23T19:18:01.304Z,25.10
2022-08-23T19:20:04.917Z,25.10
2022-08-23T19:22:07.633Z,25.10
2022-08-23T19:24:11.672Z,25.00
2022-08-23T19:26:14.976Z,24.90
2022-08-23T19:28:19.563Z,24.90
2022-08-23T19:30:22.723Z,24.90
2022-08-23T19:32:25.695Z,24.90
2022-08-23T19:34:28.494Z,24.80
2022-08-23T19:36:45.711Z,24.80
2022-08-23T19:38:49.476Z,24.70
2022-08-23T19:40:53.540Z,24.70
2022-08-23T19:42:56.453Z,24.70
2022-08-23T19:44:59.345Z,24.60
2022-08-23T19:47:02.168Z,24.60
2022-08-23T19:49:06.937Z,24.60
2022-08-23T19:51:10.316Z,24.60
2022-08-23T19:53:13.051Z,24.60
2022-08-23T19:55:17.189Z,24.50
2022-08-23T19:57:21.281Z,24.50
2022-08-23T19:59:25.290Z,24.50
2022-08-23T20:01:28.042Z,24.60
2022-08-23T20:03:30.769Z,24.50
2022-08-23T20:05:34.293Z,24.50
2022-08-23T20:07:37.687Z,24.50
2022-08-23T20:09:40.409Z,24.50
2022-08-23T20:11:43.633Z,24.50
2022-08-23T20:13:48.193Z,24.40
2022-08-23T20:15:55.994Z,24.40
2022-08-23T20:17:59.738Z,24.30
2022-08-23T20:20:02.509Z,24.30
2022-08-23T20:22:23.087Z,24.30
2022-08-23T20:24:48.698Z,24.30
2022-08-23T20:26:50.047Z,24.30
2022-08-23T20:28:59.791Z,24.30
2022-08-23T20:31:07.384Z,24.20
2022-08-23T20:33:10.131Z,24.30
2022-08-23T20:35:12.954Z,24.30
2022-08-23T20:37:15.687Z,24.30
2022-08-23T20:39:23.627Z,24.30
2022-08-23T20:41:27.680Z,24.20
2022-08-23T20:43:31.535Z,24.20
2022-08-23T20:45:35.833Z,24.30
2022-08-23T20:47:40.211Z,24.20
2022-08-23T20:49:42.965Z,24.30
2022-08-23T20:51:45.843Z,24.20
2022-08-23T20:53:48.756Z,24.20
2022-08-23T20:55:51.593Z,24.20
2022-08-23T20:57:54.321Z,24.30
2022-08-23T20:59:57.061Z,24.20
2022-08-23T21:02:01.155Z,24.20
2022-08-23T21:04:04.270Z,24.20
2022-08-23T21:06:08.475Z,24.10
2022-08-23T21:08:12.998Z,24.10
2022-08-23T21:10:15.973Z,24.10
2022-08-23T21:12:18.723Z,24.10
2022-08-23T21:14:22.477Z,24.10
2022-08-23T21:16:25.747Z,24.00
2022-08-23T21:18:30.080Z,23.90
2022-08-23T21:20:32.816Z,23.90
2022-08-23T21:22:35.536Z,23.90
2022-08-23T21:24:38.481Z,23.90
2022-08-23T21:26:41.375Z,23.80
2022-08-23T21:28:44.105Z,23.80
2022-08-23T21:30:46.965Z,23.80
2022-08-23T21:32:50.149Z,23.80
2022-08-23T21:34:54.228Z,23.70
2022-08-23T21:36:56.931Z,23.70
2022-08-23T21:38:59.640Z,23.60
2022-08-23T21:41:05.009Z,23.60
2022-08-23T21:43:07.744Z,23.60
2022-08-23T21:45:10.908Z,23.50
2022-08-23T21:47:14.157Z,23.40
2022-08-23T21:49:17.016Z,23.40
2022-08-23T21:51:21.085Z,23.40
2022-08-23T21:53:23.799Z,23.30
2022-08-23T21:55:34.409Z,23.30
2022-08-23T21:57:40.052Z,23.30
2022-08-23T21:59:42.801Z,23.20
2022-08-23T22:01:45.770Z,23.20
2022-08-23T22:03:48.528Z,23.10
2022-08-23T22:05:51.248Z,23.10
2022-08-23T22:07:55.305Z,23.10
2022-08-23T22:09:58.076Z,23.10
2022-08-23T22:12:01.106Z,23.00
2022-08-23T22:14:03.849Z,23.00
2022-08-23T22:16:07.026Z,23.00
2022-08-23T22:18:09.896Z,22.90
2022-08-23T22:20:13.558Z,22.90
2022-08-23T22:22:16.495Z,22.90
2022-08-23T22:24:25.269Z,22.80
2022-08-23T22:26:29.224Z,22.80
2022-08-23T22:28:32.488Z,22.80
2022-08-23T22:30:35.560Z,22.70
2022-08-23T22:32:38.383Z,22.70
2022-08-23T22:34:41.128Z,22.60
2022-08-23T22:36:43.921Z,22.60
2022-08-23T22:38:49.163Z,22.60
2022-08-23T22:40:53.319Z,22.50
2022-08-23T22:42:56.041Z,22.50
2022-08-23T22:44:58.781Z,22.40
2022-08-23T22:47:01.725Z,22.40
2022-08-23T22:49:04.477Z,22.30
2022-08-23T22:51:08.541Z,22.30
2022-08-23T22:53:11.905Z,22.30
2022-08-23T22:55:15.348Z,22.20
2022-08-23T22:57:19.410Z,22.20
2022-08-23T22:59:25.851Z,22.20
2022-08-23T23:01:31.668Z,22.20
2022-08-23T23:03:35.469Z,22.20
2022-08-23T23:05:40.663Z,22.10
2022-08-23T23:08:01.317Z,22.10
2022-08-23T23:10:05.252Z,22.10
2022-08-23T23:12:08.312Z,22.10
2022-08-23T23:14:12.469Z,22.10
2022-08-23T23:16:16.177Z,22.00
2022-08-23T23:18:19.083Z,22.00
2022-08-23T23:20:39.814Z,22.00
2022-08-23T23:22:44.565Z,22.00
2022-08-23T23:24:47.323Z,22.00
2022-08-23T23:26:50.042Z,21.90
2022-08-23T23:28:52.776Z,22.00
2022-08-23T23:30:57.451Z,21.90
2022-08-23T23:33:00.228Z,21.80
2022-08-23T23:35:02.985Z,21.90
2022-08-23T23:37:05.856Z,21.80
2022-08-23T23:39:09.174Z,21.80
2022-08-23T23:41:12.233Z,21.70
2022-08-23T23:43:14.953Z,21.70
2022-08-23T23:45:17.700Z,21.70
2022-08-23T23:47:21.759Z,21.70
2022-08-23T23:49:33.118Z,21.70
2022-08-23T23:51:36.165Z,21.70
2022-08-23T23:53:39.149Z,21.70
2022-08-23T23:55:43.851Z,21.70
2022-08-23T23:57:46.624Z,21.70
2022-08-23T23:59:49.357Z,21.60
